Time;durP1;ratioP1;P1;durP2;ratioP2;P2;SDS_P1;SDS_P2;PMS_P1;PMS_P2;Temp;Humidity;BMP_temperature;BMP_pressure;BME280_temperature;BME280_humidity;BME280_pressure;Samples;Min_cycle;Max_cycle;Signal;HPM_P1;HPM_P2
2022/01/06 00:01:46;;;;;;;3.97;1.60;;;1.30;99.90;;;;;;5117267;28;20197;-85
2022/01/06 00:04:11;;;;;;;3.90;1.03;;;1.20;99.90;;;;;;5116254;28;20167;-86
2022/01/06 00:06:40;;;;;;;2.20;0.40;;;1.20;99.90;;;;;;5116470;28;20170;-86
2022/01/06 00:09:08;;;;;;;2.00;0.30;;;1.20;99.90;;;;;;5115673;28;20170;-85
2022/01/06 00:11:34;;;;;;;1.67;0.53;;;1.20;99.90;;;;;;5115955;28;20417;-84
2022/01/06 00:14:16;;;;;;;2.43;0.40;;;1.10;99.90;;;;;;5115874;28;20832;-83
2022/01/06 00:17:01;;;;;;;1.43;1.13;;;1.10;99.90;;;;;;5115389;28;20474;-83
2022/01/06 00:24:57;;;;;;;1.17;0.50;;;1.00;99.90;;;;;;5116168;28;20760;-88
2022/01/06 00:27:23;;;;;;;1.90;0.50;;;1.00;99.90;;;;;;5116205;28;20433;-90
2022/01/06 00:29:48;;;;;;;2.77;0.40;;;0.90;99.90;;;;;;5116154;28;20581;-90
2022/01/06 00:32:14;;;;;;;2.50;0.90;;;0.80;99.90;;;;;;5098034;28;20175;-85
2022/01/06 00:34:41;;;;;;;5.83;0.50;;;0.80;99.90;;;;;;5097898;28;20637;-86
2022/01/06 00:37:07;;;;;;;3.90;0.50;;;0.80;99.90;;;;;;5115390;28;20199;-89
2022/01/06 00:39:33;;;;;;;2.30;0.70;;;0.80;99.90;;;;;;5115782;28;20423;-85
2022/01/06 00:42:00;;;;;;;2.77;0.63;;;0.70;99.90;;;;;;5116027;28;20496;-85
2022/01/06 00:44:26;;;;;;;2.00;0.60;;;0.70;99.90;;;;;;5097693;28;20180;-85
2022/01/06 00:46:52;;;;;;;1.70;0.67;;;0.60;99.90;;;;;;5098022;28;20425;-88
2022/01/06 00:49:20;;;;;;;0.60;0.40;;;0.60;99.90;;;;;;5115903;28;20205;-89
2022/01/06 00:51:46;;;;;;;2.40;0.50;;;0.60;99.90;;;;;;5098515;28;20421;-89
2022/01/06 00:54:14;;;;;;;4.50;0.50;;;0.60;99.90;;;;;;5115405;28;20447;-86
2022/01/06 00:56:40;;;;;;;3.60;1.83;;;0.50;99.90;;;;;;5115688;28;20603;-90
2022/01/06 00:59:05;;;;;;;1.77;0.50;;;0.50;99.90;;;;;;5115681;28;20466;-87
2022/01/06 01:01:32;;;;;;;2.80;0.50;;;0.50;99.90;;;;;;5112721;28;20166;-85
2022/01/06 01:03:58;;;;;;;1.43;0.67;;;0.50;99.90;;;;;;5115351;28;20168;-87
2022/01/06 01:06:23;;;;;;;1.50;0.50;;;0.60;99.90;;;;;;5097342;28;20504;-90
2022/01/06 01:08:49;;;;;;;4.70;0.90;;;0.60;99.90;;;;;;5114759;28;20178;-87
2022/01/06 01:11:15;;;;;;;2.30;0.90;;;0.60;99.90;;;;;;5115197;28;20179;-87
2022/01/06 01:14:07;;;;;;;2.20;0.43;;;0.50;99.90;;;;;;5114820;28;20242;-85
2022/01/06 01:16:32;;;;;;;3.90;0.60;;;0.60;99.90;;;;;;5114560;28;20426;-86
2022/01/06 01:19:03;;;;;;;3.83;1.00;;;0.50;99.90;;;;;;5113991;28;20989;-85
2022/01/06 01:21:29;;;;;;;0.90;0.40;;;0.40;99.90;;;;;;5115018;28;20433;-85
2022/01/06 01:23:57;;;;;;;1.40;0.40;;;0.30;99.90;;;;;;5096280;28;20971;-86
2022/01/06 01:26:24;;;;;;;0.80;0.70;;;0.30;99.90;;;;;;5096725;28;20780;-90
2022/01/06 01:28:51;;;;;;;1.97;0.40;;;0.30;99.90;;;;;;5114260;28;20420;-89
2022/01/06 01:31:25;;;;;;;3.90;0.93;;;0.20;99.90;;;;;;5115058;28;20420;-84
2022/01/06 01:33:52;;;;;;;2.77;0.50;;;0.30;99.90;;;;;;5115062;28;20903;-85
2022/01/06 01:36:19;;;;;;;2.30;0.83;;;0.20;99.90;;;;;;5115118;28;20397;-87
2022/01/06 01:38:45;;;;;;;4.43;0.73;;;0.20;99.90;;;;;;5096313;28;20961;-86
2022/01/06 01:41:11;;;;;;;0.50;0.30;;;0.30;99.90;;;;;;5115050;28;20404;-87
2022/01/06 01:43:37;;;;;;;2.23;1.30;;;0.30;99.90;;;;;;5115163;28;20420;-93
2022/01/06 01:46:11;;;;;;;0.63;0.50;;;0.20;99.90;;;;;;5114893;28;20413;-89
2022/01/06 01:48:40;;;;;;;1.43;0.50;;;0.20;99.90;;;;;;5115107;28;20480;-92
2022/01/06 01:51:08;;;;;;;0.50;0.50;;;0.20;99.90;;;;;;5115707;28;20456;-86
2022/01/06 01:53:35;;;;;;;2.20;0.97;;;0.20;99.90;;;;;;5114654;28;20409;-86
2022/01/06 01:56:00;;;;;;;0.87;0.87;;;0.30;99.90;;;;;;5101189;28;20913;-90
2022/01/06 01:58:26;;;;;;;2.93;0.80;;;0.30;99.90;;;;;;5115961;28;20471;-95
2022/01/06 02:00:51;;;;;;;1.80;0.90;;;0.30;99.90;;;;;;5114659;28;20179;-87
2022/01/06 02:03:17;;;;;;;3.33;0.87;;;0.30;99.90;;;;;;5114543;28;20614;-93
2022/01/06 02:05:42;;;;;;;1.90;0.77;;;0.30;99.90;;;;;;5113786;28;20182;-90
2022/01/06 02:08:08;;;;;;;1.10;0.43;;;0.30;99.90;;;;;;5114383;28;20624;-89
2022/01/06 02:10:34;;;;;;;2.93;0.73;;;0.30;99.90;;;;;;5114574;28;20642;-93
2022/01/06 02:13:01;;;;;;;0.87;0.63;;;0.20;99.90;;;;;;5114792;28;20185;-92
2022/01/06 02:15:27;;;;;;;2.87;0.63;;;0.20;99.90;;;;;;5115147;28;20257;-91
2022/01/06 02:17:53;;;;;;;4.53;0.60;;;0.20;99.90;;;;;;5114860;28;20556;-88
2022/01/06 02:20:21;;;;;;;4.33;1.13;;;0.10;99.90;;;;;;5096285;28;20414;-94
2022/01/06 02:22:48;;;;;;;1.13;0.90;;;0.10;99.90;;;;;;5114132;28;20934;-95
2022/01/06 02:25:26;;;;;;;2.70;0.70;;;0.10;99.90;;;;;;5096667;28;20416;-92
2022/01/06 02:27:52;;;;;;;0.87;0.80;;;0.10;99.90;;;;;;5114280;28;20425;-95
2022/01/06 02:30:20;;;;;;;2.23;0.80;;;0.10;99.90;;;;;;5114377;28;20404;-93
2022/01/06 02:32:45;;;;;;;3.03;0.87;;;0.20;99.90;;;;;;5114368;28;20412;-88
2022/01/06 02:35:14;;;;;;;1.10;0.57;;;0.20;99.90;;;;;;5114689;28;20911;-93
2022/01/06 02:37:41;;;;;;;2.93;0.47;;;0.20;99.90;;;;;;5113718;28;20252;-94
2022/01/06 02:40:09;;;;;;;2.70;0.57;;;0.10;99.90;;;;;;5115594;28;20469;-88
2022/01/06 02:42:38;;;;;;;1.90;0.80;;;0.20;99.90;;;;;;5100107;28;20425;-89
2022/01/06 02:45:04;;;;;;;3.13;0.60;;;0.10;99.90;;;;;;5118321;28;20507;-90
2022/01/06 02:47:31;;;;;;;5.13;0.60;;;0.00;99.90;;;;;;5119032;28;20456;-94
2022/01/06 02:49:57;;;;;;;1.90;0.60;;;0.00;99.90;;;;;;5118391;28;20428;-87
2022/01/06 02:52:22;;;;;;;3.23;0.67;;;-0.10;99.90;;;;;;5099600;28;20417;-85
2022/01/06 02:54:48;;;;;;;1.77;0.40;;;0.00;99.90;;;;;;5116910;28;20218;-91
2022/01/06 02:57:13;;;;;;;0.70;0.40;;;-0.20;99.90;;;;;;5116874;28;20195;-94
2022/01/06 02:59:39;;;;;;;1.37;0.20;;;-0.20;99.90;;;;;;5118669;28;20180;-94
2022/01/06 03:02:04;;;;;;;3.13;1.00;;;-0.20;99.90;;;;;;5100682;28;20275;-93
2022/01/06 03:04:30;;;;;;;2.63;0.87;;;-0.20;99.90;;;;;;5118212;28;20270;-89
2022/01/06 03:06:55;;;;;;;3.60;0.93;;;-0.30;99.90;;;;;;5117812;28;20164;-93
2022/01/06 03:09:26;;;;;;;1.63;0.30;;;-0.30;99.90;;;;;;5118214;28;20175;-93
2022/01/06 03:11:54;;;;;;;2.20;0.70;;;-0.30;99.90;;;;;;5118260;28;20616;-91
2022/01/06 03:14:20;;;;;;;2.23;0.80;;;-0.30;99.90;;;;;;5118329;28;20407;-94
2022/01/06 03:16:46;;;;;;;2.67;0.87;;;-0.20;99.90;;;;;;5117793;28;20420;-93
2022/01/06 03:19:11;;;;;;;3.63;0.60;;;-0.20;99.90;;;;;;5117077;28;20414;-85
2022/01/06 03:21:37;;;;;;;1.97;0.50;;;-0.20;99.90;;;;;;5116685;28;20232;-85
2022/01/06 03:24:02;;;;;;;0.43;0.20;;;-0.20;99.90;;;;;;5117833;28;20176;-93
2022/01/06 03:26:28;;;;;;;1.53;1.20;;;-0.30;99.90;;;;;;5117867;28;20208;-92
2022/01/06 03:28:53;;;;;;;2.50;1.07;;;-0.20;99.90;;;;;;5118433;28;20568;-93
2022/01/06 03:31:19;;;;;;;3.80;0.90;;;-0.30;99.90;;;;;;5117525;28;20249;-88
2022/01/06 03:33:45;;;;;;;4.97;0.77;;;-0.40;99.90;;;;;;5117636;28;20175;-89
2022/01/06 03:36:10;;;;;;;0.80;0.60;;;-0.30;99.90;;;;;;5099516;28;20179;-93
2022/01/06 03:38:36;;;;;;;1.50;0.50;;;-0.40;99.90;;;;;;5116847;28;20223;-88
2022/01/06 03:41:01;;;;;;;3.77;0.97;;;-0.50;99.90;;;;;;5116408;28;20203;-90
2022/01/06 03:43:27;;;;;;;2.10;1.33;;;-0.50;99.90;;;;;;5117479;28;20201;-93
2022/01/06 03:45:53;;;;;;;4.47;0.50;;;-0.50;99.90;;;;;;5117514;28;20514;-90
2022/01/06 03:48:18;;;;;;;2.27;0.60;;;-0.60;99.90;;;;;;5117422;28;20407;-89
2022/01/06 03:50:44;;;;;;;0.47;0.47;;;-0.50;99.90;;;;;;5117278;28;20622;-86
2022/01/06 03:53:09;;;;;;;0.97;0.50;;;-0.50;99.90;;;;;;5115324;28;20193;-85
2022/01/06 03:55:36;;;;;;;2.17;0.70;;;-0.50;99.90;;;;;;5116572;28;20171;-88
2022/01/06 03:58:02;;;;;;;2.47;0.80;;;-0.50;99.90;;;;;;5116298;28;20610;-86
2022/01/06 04:00:31;;;;;;;2.67;0.77;;;-0.50;99.90;;;;;;5116477;28;20412;-85
2022/01/06 04:02:57;;;;;;;1.13;0.77;;;-0.50;99.90;;;;;;5116416;28;20167;-84
2022/01/06 04:05:22;;;;;;;3.17;1.20;;;-0.40;99.90;;;;;;5115136;28;20420;-88
2022/01/06 04:07:47;;;;;;;1.70;0.90;;;-0.40;99.90;;;;;;5116477;28;20356;-86
2022/01/06 04:10:13;;;;;;;1.87;0.60;;;-0.30;99.90;;;;;;5116361;28;20176;-84
2022/01/06 04:12:39;;;;;;;2.67;0.70;;;-0.40;99.90;;;;;;5115814;28;20189;-84
2022/01/06 04:15:12;;;;;;;2.30;0.77;;;-0.40;99.90;;;;;;5116988;28;20168;-84
2022/01/06 04:17:39;;;;;;;1.57;0.80;;;-0.40;99.90;;;;;;5098901;28;20203;-84
2022/01/06 04:20:07;;;;;;;1.10;0.80;;;-0.40;99.90;;;;;;5116879;28;20572;-87
2022/01/06 04:22:33;;;;;;;0.70;0.67;;;-0.50;99.90;;;;;;5117004;28;20765;-84
2022/01/06 04:24:58;;;;;;;7.37;1.83;;;-0.60;99.90;;;;;;5099637;28;20421;-84
2022/01/06 04:27:24;;;;;;;1.63;0.50;;;-0.50;99.90;;;;;;5118266;28;20416;-84
2022/01/06 04:29:49;;;;;;;8.13;1.03;;;-0.50;99.90;;;;;;5116153;28;20631;-84
2022/01/06 04:32:15;;;;;;;1.40;0.80;;;-0.40;99.90;;;;;;5117176;28;20186;-84
2022/01/06 04:34:40;;;;;;;2.27;1.57;;;-0.50;99.90;;;;;;5115494;28;20178;-84
2022/01/06 04:37:06;;;;;;;2.17;0.73;;;-0.40;99.90;;;;;;5115372;28;20666;-84
2022/01/06 04:39:31;;;;;;;1.70;1.27;;;-0.50;99.90;;;;;;5114213;28;20299;-86
2022/01/06 04:41:57;;;;;;;4.50;1.20;;;-0.60;99.90;;;;;;5115315;28;20172;-83
2022/01/06 04:44:22;;;;;;;5.53;2.03;;;-0.60;99.90;;;;;;5115376;28;20178;-84
2022/01/06 04:46:48;;;;;;;2.10;1.20;;;-0.60;99.90;;;;;;5115495;28;20166;-84
2022/01/06 04:49:13;;;;;;;4.93;1.57;;;-0.50;99.90;;;;;;5113981;28;20542;-85
2022/01/06 04:51:39;;;;;;;3.70;1.20;;;-0.40;99.90;;;;;;5115000;28;20196;-84
2022/01/06 04:54:06;;;;;;;3.07;0.87;;;-0.40;99.90;;;;;;5115621;28;20228;-86
2022/01/06 04:56:36;;;;;;;3.00;1.00;;;-0.30;99.90;;;;;;5117303;28;20234;-83
2022/01/06 04:59:11;;;;;;;2.13;1.20;;;-0.30;99.90;;;;;;5117333;28;20543;-85
2022/01/06 05:01:37;;;;;;;1.03;0.57;;;-0.50;99.90;;;;;;5116424;28;20401;-83
2022/01/06 05:04:03;;;;;;;5.43;1.20;;;-0.40;99.90;;;;;;5115114;28;20413;-84
2022/01/06 05:06:29;;;;;;;3.73;1.93;;;-0.50;99.90;;;;;;5116122;28;20485;-83
2022/01/06 05:08:54;;;;;;;0.93;0.50;;;-0.60;99.90;;;;;;5115355;28;20420;-84
2022/01/06 05:11:20;;;;;;;1.23;0.50;;;-0.70;99.90;;;;;;5114400;28;20638;-84
2022/01/06 05:13:46;;;;;;;1.57;1.00;;;-0.70;99.90;;;;;;5115720;28;20178;-83
2022/01/06 05:16:12;;;;;;;2.77;0.80;;;-0.70;99.90;;;;;;5116179;28;20200;-84
2022/01/06 05:18:38;;;;;;;4.10;0.40;;;-0.70;99.90;;;;;;5115363;28;20536;-84
2022/01/06 05:21:05;;;;;;;2.00;1.23;;;-0.60;99.90;;;;;;5115022;28;20902;-83
2022/01/06 05:23:31;;;;;;;5.33;1.43;;;-0.60;99.90;;;;;;5115250;28;20296;-86
2022/01/06 05:25:57;;;;;;;1.53;0.43;;;-0.60;99.90;;;;;;5096722;28;20469;-84
2022/01/06 05:28:22;;;;;;;3.13;0.73;;;-0.70;99.90;;;;;;5115311;28;20186;-83
2022/01/06 05:30:48;;;;;;;3.23;1.10;;;-0.70;99.90;;;;;;5116017;28;20780;-83
2022/01/06 05:33:14;;;;;;;2.90;0.53;;;-0.50;99.90;;;;;;5117094;28;20555;-83
2022/01/06 05:35:42;;;;;;;1.83;0.80;;;-0.40;99.90;;;;;;5117650;28;20226;-83
2022/01/06 05:38:07;;;;;;;2.27;0.90;;;-0.30;99.90;;;;;;5114930;28;20628;-83
2022/01/06 05:40:33;;;;;;;0.70;0.70;;;-0.30;99.90;;;;;;5116622;28;20408;-83
2022/01/06 05:42:59;;;;;;;1.40;0.90;;;-0.30;99.90;;;;;;5098408;28;20518;-83
2022/01/06 05:45:26;;;;;;;5.73;1.00;;;-0.30;99.90;;;;;;5115750;28;20163;-84
2022/01/06 05:47:52;;;;;;;2.07;0.87;;;-0.30;99.90;;;;;;5118857;28;20413;-84
2022/01/06 05:50:18;;;;;;;1.53;0.83;;;-0.30;99.90;;;;;;5115898;28;20753;-84
2022/01/06 05:52:44;;;;;;;2.20;1.30;;;-0.30;99.90;;;;;;5115540;28;20427;-84
2022/01/06 05:55:10;;;;;;;2.33;0.87;;;-0.40;99.90;;;;;;5117434;28;20777;-91
2022/01/06 05:57:36;;;;;;;3.90;0.97;;;-0.40;99.90;;;;;;5116921;28;20448;-84
2022/01/06 06:00:04;;;;;;;1.70;0.90;;;-0.50;99.90;;;;;;5115749;28;20424;-84
2022/01/06 06:02:29;;;;;;;1.03;0.80;;;-0.50;99.90;;;;;;5098468;28;20175;-84
2022/01/06 06:04:55;;;;;;;1.23;0.70;;;-0.60;99.90;;;;;;5115038;28;20440;-84
2022/01/06 06:07:20;;;;;;;4.93;1.20;;;-0.70;99.90;;;;;;5096547;28;20626;-85
2022/01/06 06:10:06;;;;;;;1.37;0.90;;;-0.80;99.90;;;;;;5114236;28;20266;-84
2022/01/06 06:12:32;;;;;;;2.30;1.13;;;-0.90;99.90;;;;;;5115861;28;20174;-84
2022/01/06 06:14:57;;;;;;;3.80;0.90;;;-0.90;99.90;;;;;;5115317;28;20420;-83
2022/01/06 06:17:23;;;;;;;3.60;0.73;;;-1.00;99.90;;;;;;5115644;28;20645;-84
2022/01/06 06:19:48;;;;;;;1.00;0.63;;;-1.00;99.90;;;;;;5116818;28;20178;-84
2022/01/06 06:22:14;;;;;;;1.10;1.00;;;-1.00;99.90;;;;;;5097966;28;20630;-84
2022/01/06 06:24:39;;;;;;;1.80;0.93;;;-1.10;99.90;;;;;;5116719;28;20178;-84
2022/01/06 06:27:08;;;;;;;7.57;1.63;;;-1.10;99.90;;;;;;5115750;28;20169;-84
2022/01/06 06:29:33;;;;;;;2.37;0.70;;;-1.10;99.90;;;;;;5118742;28;20186;-84
2022/01/06 06:31:59;;;;;;;1.67;0.80;;;-1.10;99.90;;;;;;5114664;28;20416;-84
2022/01/06 06:34:27;;;;;;;4.13;0.90;;;-1.10;99.90;;;;;;5114801;28;20231;-84
2022/01/06 06:36:52;;;;;;;2.20;1.13;;;-1.10;99.90;;;;;;5096370;28;20199;-84
2022/01/06 06:39:18;;;;;;;2.77;1.13;;;-1.20;99.90;;;;;;5117671;28;20787;-84
2022/01/06 06:41:43;;;;;;;1.57;1.47;;;-1.20;99.90;;;;;;5118265;28;20237;-84
2022/01/06 06:44:12;;;;;;;2.20;0.80;;;-1.30;99.90;;;;;;5115777;28;20581;-84
2022/01/06 06:46:38;;;;;;;3.27;1.37;;;-1.40;99.90;;;;;;5113906;28;20171;-85
2022/01/06 06:49:06;;;;;;;3.87;2.47;;;-1.30;99.90;;;;;;5113387;28;20419;-85
2022/01/06 06:51:32;;;;;;;8.57;3.13;;;-1.30;99.90;;;;;;5113385;28;20181;-91
2022/01/06 06:53:57;;;;;;;2.20;1.20;;;-1.30;99.90;;;;;;5114218;28;20405;-84
2022/01/06 06:56:23;;;;;;;1.77;1.60;;;-1.30;99.90;;;;;;5114835;28;20212;-84
2022/01/06 06:58:48;;;;;;;4.97;1.57;;;-1.20;99.90;;;;;;5097796;28;20215;-84
2022/01/06 07:01:14;;;;;;;5.53;2.00;;;-1.20;99.90;;;;;;5116356;28;20174;-88
2022/01/06 07:03:40;;;;;;;3.80;1.50;;;-1.20;99.90;;;;;;5114299;28;20243;-87
2022/01/06 07:06:06;;;;;;;7.57;2.10;;;-1.20;99.90;;;;;;5114560;28;20163;-82
2022/01/06 07:08:31;;;;;;;4.30;0.97;;;-1.10;99.90;;;;;;5118829;28;20422;-82
2022/01/06 07:10:57;;;;;;;1.93;1.10;;;-1.10;99.90;;;;;;5115818;28;20180;-82
2022/01/06 07:13:23;;;;;;;3.50;1.20;;;-1.10;99.90;;;;;;5117384;28;20261;-88
2022/01/06 07:15:48;;;;;;;2.50;1.37;;;-1.20;99.90;;;;;;5116572;28;20691;-82
2022/01/06 07:18:14;;;;;;;4.93;1.20;;;-1.10;99.90;;;;;;5115563;28;20201;-84
2022/01/06 07:20:40;;;;;;;2.63;1.47;;;-1.10;99.90;;;;;;5115263;28;20185;-95
2022/01/06 07:23:06;;;;;;;2.83;1.47;;;-1.10;99.90;;;;;;5114780;28;20532;-82
2022/01/06 07:25:31;;;;;;;2.07;1.20;;;-1.20;99.90;;;;;;5117961;28;20838;-82
2022/01/06 07:27:57;;;;;;;3.60;1.47;;;-1.10;99.90;;;;;;5116793;28;20261;-82
2022/01/06 07:30:23;;;;;;;7.00;1.00;;;-1.20;99.90;;;;;;5121518;28;20188;-82
2022/01/06 07:32:50;;;;;;;6.57;1.03;;;-1.30;99.90;;;;;;5115930;28;20549;-82
2022/01/06 07:35:18;;;;;;;1.23;1.10;;;-1.30;99.90;;;;;;5117632;28;20498;-82
2022/01/06 07:37:43;;;;;;;0.80;0.70;;;-1.50;99.90;;;;;;5115854;28;20479;-82
2022/01/06 07:40:09;;;;;;;4.33;1.10;;;-1.50;99.90;;;;;;5118503;28;20431;-82
2022/01/06 07:42:35;;;;;;;2.40;1.43;;;-1.40;99.90;;;;;;5118423;28;20683;-82
2022/01/06 07:45:02;;;;;;;4.63;1.10;;;-1.40;99.90;;;;;;5116530;28;20773;-82
2022/01/06 07:47:29;;;;;;;3.90;0.73;;;-1.30;99.90;;;;;;5099224;28;20503;-82
2022/01/06 07:49:54;;;;;;;2.97;1.03;;;-1.20;99.90;;;;;;5118002;28;20407;-82
2022/01/06 07:52:21;;;;;;;2.63;0.63;;;-1.20;99.90;;;;;;5116230;28;20439;-82
2022/01/06 07:54:47;;;;;;;1.67;0.87;;;-1.10;99.90;;;;;;5098162;28;20177;-83
2022/01/06 07:57:16;;;;;;;4.47;1.57;;;-1.10;99.90;;;;;;5117121;28;20451;-82
2022/01/06 07:59:42;;;;;;;1.30;0.87;;;-1.00;99.90;;;;;;5116669;28;20416;-83
2022/01/06 08:02:08;;;;;;;2.73;0.80;;;-0.90;99.90;;;;;;5116143;28;20508;-81
2022/01/06 08:04:35;;;;;;;2.40;1.87;;;-0.80;99.90;;;;;;5115995;28;20162;-82
2022/01/06 08:07:00;;;;;;;4.00;1.47;;;-0.80;99.90;;;;;;5115558;28;20412;-83
2022/01/06 08:09:29;;;;;;;7.10;1.23;;;-0.80;99.90;;;;;;5116385;28;20485;-83
2022/01/06 08:11:54;;;;;;;3.50;1.53;;;-0.80;99.90;;;;;;5116033;28;20436;-81
2022/01/06 08:14:20;;;;;;;2.53;0.53;;;-0.80;99.90;;;;;;5115891;28;20416;-82
2022/01/06 08:16:46;;;;;;;3.90;1.70;;;-0.90;99.90;;;;;;5116113;28;20252;-81
2022/01/06 08:19:12;;;;;;;3.07;0.90;;;-1.00;99.90;;;;;;5116147;28;20916;-84
2022/01/06 08:21:38;;;;;;;2.00;0.90;;;-1.00;99.90;;;;;;5115528;28;20409;-80
2022/01/06 08:24:04;;;;;;;3.13;1.40;;;-0.90;99.90;;;;;;5115859;28;20193;-82
2022/01/06 08:26:32;;;;;;;2.47;0.60;;;-0.90;99.90;;;;;;5115802;28;20168;-81
2022/01/06 08:28:58;;;;;;;1.87;0.60;;;-1.00;99.90;;;;;;5116376;28;20488;-84
2022/01/06 08:31:23;;;;;;;2.00;1.30;;;-0.90;99.90;;;;;;5116003;28;20436;-84
2022/01/06 08:33:49;;;;;;;6.33;1.87;;;-0.90;99.90;;;;;;5115937;28;20218;-91
2022/01/06 08:36:15;;;;;;;2.37;1.60;;;-0.80;99.90;;;;;;5115564;28;20197;-82
2022/01/06 08:38:41;;;;;;;1.67;0.43;;;-0.80;99.90;;;;;;5118642;28;20227;-81
2022/01/06 08:41:06;;;;;;;4.23;1.03;;;-0.70;99.90;;;;;;5120599;28;20509;-83
2022/01/06 08:43:32;;;;;;;4.50;1.13;;;-0.70;99.90;;;;;;5117153;28;20440;-84
2022/01/06 08:45:58;;;;;;;1.50;0.70;;;-0.60;99.90;;;;;;5115835;28;20168;-84
2022/01/06 08:48:25;;;;;;;1.60;1.23;;;-0.50;99.90;;;;;;5115392;28;20554;-82
2022/01/06 08:50:51;;;;;;;3.10;1.23;;;-0.50;99.90;;;;;;5115048;28;20410;-85
2022/01/06 08:53:20;;;;;;;8.20;1.27;;;-0.40;99.90;;;;;;5116265;28;20516;-82
2022/01/06 08:55:46;;;;;;;2.30;0.70;;;-0.30;99.90;;;;;;5115288;28;20171;-82
2022/01/06 08:58:13;;;;;;;1.37;1.00;;;-0.50;99.90;;;;;;5097760;28;20521;-81
2022/01/06 09:00:39;;;;;;;2.77;0.63;;;-0.40;99.90;;;;;;5121454;28;20418;-81
2022/01/06 09:03:06;;;;;;;4.47;1.13;;;-0.30;99.90;;;;;;5120427;28;20799;-81
2022/01/06 09:05:35;;;;;;;3.70;0.97;;;-0.20;99.90;;;;;;5119568;28;20489;-83
2022/01/06 09:08:02;;;;;;;2.03;1.13;;;0.00;99.90;;;;;;5119634;28;20409;-81
2022/01/06 09:10:33;;;;;;;4.17;1.30;;;0.50;99.90;;;;;;5118276;28;20773;-81
2022/01/06 09:13:01;;;;;;;3.17;1.47;;;0.40;99.90;;;;;;5121835;28;20425;-81
2022/01/06 09:15:26;;;;;;;2.10;1.07;;;0.50;99.90;;;;;;5126229;28;20466;-82
2022/01/06 09:17:52;;;;;;;5.23;1.00;;;0.50;99.90;;;;;;5124517;28;20469;-82
2022/01/06 09:20:19;;;;;;;5.97;1.27;;;0.70;99.90;;;;;;5119965;28;20402;-82
2022/01/06 09:22:45;;;;;;;6.20;1.30;;;0.80;99.90;;;;;;5117660;28;20537;-82
2022/01/06 09:25:13;;;;;;;8.90;1.67;;;0.90;99.90;;;;;;5118786;28;20409;-82
2022/01/06 09:27:39;;;;;;;4.10;1.20;;;1.00;99.90;;;;;;5115865;28;20455;-82
2022/01/06 09:30:06;;;;;;;2.77;1.00;;;1.20;99.90;;;;;;5115208;28;20444;-82
2022/01/06 09:32:35;;;;;;;3.60;1.13;;;1.20;99.90;;;;;;5118088;28;20410;-82
2022/01/06 09:35:00;;;;;;;3.20;1.37;;;1.20;99.90;;;;;;5115727;28;20758;-82
2022/01/06 09:37:26;;;;;;;3.33;1.03;;;1.40;99.90;;;;;;5115831;28;20478;-82
2022/01/06 09:39:51;;;;;;;1.43;0.43;;;1.60;99.90;;;;;;5099511;28;20609;-82
2022/01/06 09:42:18;;;;;;;3.80;1.40;;;1.60;99.90;;;;;;5115993;28;20174;-82
2022/01/06 09:44:47;;;;;;;4.37;0.87;;;1.90;99.90;;;;;;5098143;28;20690;-84
2022/01/06 09:47:13;;;;;;;3.57;1.20;;;1.70;99.90;;;;;;5117159;28;20413;-84
2022/01/06 09:49:42;;;;;;;7.20;1.73;;;1.60;99.90;;;;;;5117086;28;20908;-82
2022/01/06 09:52:14;;;;;;;4.23;0.90;;;1.60;99.90;;;;;;5118547;28;20170;-83
2022/01/06 09:54:40;;;;;;;8.50;1.13;;;1.70;99.90;;;;;;5115549;28;20473;-83
2022/01/06 09:57:07;;;;;;;2.87;1.27;;;1.90;99.90;;;;;;5116275;28;20405;-82
2022/01/06 09:59:33;;;;;;;2.20;0.97;;;2.00;99.90;;;;;;5097173;28;20422;-83
2022/01/06 10:01:58;;;;;;;2.40;1.20;;;2.00;99.90;;;;;;5116481;28;20416;-83
2022/01/06 10:04:30;;;;;;;2.30;0.80;;;2.00;99.90;;;;;;5113976;28;20428;-83
2022/01/06 10:07:06;;;;;;;2.50;0.53;;;2.00;99.90;;;;;;5113635;28;20569;-82
2022/01/06 10:09:34;;;;;;;4.87;0.50;;;1.90;99.90;;;;;;5114128;28;20461;-83
2022/01/06 10:12:03;;;;;;;2.47;0.77;;;2.00;99.90;;;;;;5114202;28;20410;-83
2022/01/06 10:14:44;;;;;;;3.43;1.37;;;2.20;99.90;;;;;;5114001;28;20407;-90
2022/01/06 10:17:16;;;;;;;2.80;0.90;;;2.10;99.90;;;;;;5095454;28;20422;-83
2022/01/06 10:19:45;;;;;;;3.17;0.73;;;2.20;99.90;;;;;;5113616;28;20406;-83
2022/01/06 10:22:12;;;;;;;2.20;0.50;;;2.20;99.90;;;;;;5094864;28;20427;-82
2022/01/06 10:24:37;;;;;;;2.07;0.70;;;2.20;99.90;;;;;;5113753;28;20954;-83
2022/01/06 10:27:07;;;;;;;4.13;1.20;;;2.30;99.90;;;;;;5113644;28;20416;-83
2022/01/06 10:29:47;;;;;;;2.70;1.20;;;2.30;99.90;;;;;;5113437;28;20174;-83
2022/01/06 10:32:16;;;;;;;1.60;0.80;;;2.30;99.90;;;;;;5113446;28;20409;-82
2022/01/06 10:34:47;;;;;;;1.90;1.00;;;2.40;99.90;;;;;;5113935;28;20482;-92
2022/01/06 10:37:27;;;;;;;4.23;0.83;;;2.60;99.90;;;;;;5113870;28;20458;-88
2022/01/06 10:39:57;;;;;;;7.27;0.87;;;2.60;99.90;;;;;;5114063;28;20418;-83
2022/01/06 10:42:29;;;;;;;6.83;0.77;;;2.70;99.90;;;;;;5113599;28;20799;-82
2022/01/06 10:45:07;;;;;;;3.73;0.83;;;2.70;99.90;;;;;;5113538;28;20418;-82
2022/01/06 10:47:35;;;;;;;2.20;0.77;;;2.90;99.90;;;;;;5095246;28;20508;-89
2022/01/06 10:50:23;;;;;;;3.20;1.07;;;3.80;99.90;;;;;;5113716;28;20417;-89
2022/01/06 10:52:54;;;;;;;1.93;0.57;;;5.50;99.90;;;;;;5113872;28;20411;-90
2022/01/06 10:55:27;;;;;;;3.27;0.50;;;6.00;99.90;;;;;;5114817;28;20423;-84
2022/01/06 10:58:04;;;;;;;2.67;0.83;;;6.20;99.90;;;;;;5115126;28;20453;-86
2022/01/06 11:00:32;;;;;;;1.80;0.87;;;7.10;99.90;;;;;;5114471;28;20414;-85
2022/01/06 11:03:20;;;;;;;2.30;1.10;;;7.00;99.90;;;;;;5098582;28;20430;-85
2022/01/06 11:05:54;;;;;;;4.40;1.10;;;6.90;99.90;;;;;;5117320;28;20990;-83
2022/01/06 11:08:32;;;;;;;5.03;1.73;;;7.50;99.90;;;;;;5119030;28;20410;-88
2022/01/06 11:13:32;;;;;;;2.10;0.83;;;9.80;99.90;;;;;;5118348;28;20411;-84
2022/01/06 11:15:58;;;;;;;4.13;1.50;;;10.60;99.90;;;;;;5100278;28;20488;-88
2022/01/06 11:18:24;;;;;;;6.23;1.67;;;10.70;98.60;;;;;;5099949;28;20471;-84
2022/01/06 11:20:51;;;;;;;2.03;0.73;;;9.80;99.80;;;;;;5117682;28;20909;-91
2022/01/06 11:23:22;;;;;;;4.60;1.17;;;9.70;99.90;;;;;;5117744;28;20462;-86
2022/01/06 11:26:12;;;;;;;4.27;0.90;;;10.40;98.50;;;;;;5118134;28;20405;-84
2022/01/06 11:28:42;;;;;;;4.33;1.40;;;10.80;97.60;;;;;;5099148;28;20421;-90
2022/01/06 11:31:17;;;;;;;4.27;1.30;;;10.70;96.90;;;;;;5118297;28;20406;-87
2022/01/06 11:33:45;;;;;;;4.90;1.43;;;10.30;96.60;;;;;;5117427;28;20931;-90
2022/01/06 11:36:25;;;;;;;2.70;1.00;;;8.70;99.90;;;;;;5117989;28;20406;-88
2022/01/06 11:38:52;;;;;;;3.63;1.37;;;7.50;99.90;;;;;;5117947;28;20479;-94
2022/01/06 11:41:18;;;;;;;2.73;1.80;;;8.70;99.90;;;;;;5118699;28;20408;-91
2022/01/06 11:43:46;;;;;;;3.87;1.47;;;9.10;99.90;;;;;;5099548;28;20471;-85
2022/01/06 11:46:13;;;;;;;4.83;1.47;;;9.70;99.90;;;;;;5117125;28;20456;-85
2022/01/06 11:48:54;;;;;;;5.50;1.53;;;10.10;98.20;;;;;;5116900;28;20835;-85
2022/01/06 11:51:33;;;;;;;3.50;1.30;;;10.60;97.00;;;;;;5116355;28;20744;-84
2022/01/06 11:54:11;;;;;;;4.77;1.60;;;9.90;97.60;;;;;;5116878;28;20401;-84
2022/01/06 11:56:47;;;;;;;3.10;1.00;;;10.20;97.60;;;;;;5116692;28;20432;-86
2022/01/06 11:59:14;;;;;;;3.93;0.90;;;10.50;96.30;;;;;;5098346;28;20515;-84
2022/01/06 12:01:49;;;;;;;3.97;1.30;;;10.00;97.60;;;;;;5116537;28;20905;-87
2022/01/06 12:04:20;;;;;;;3.43;0.83;;;9.60;99.60;;;;;;5116584;28;20412;-84
2022/01/06 12:06:47;;;;;;;5.13;0.97;;;9.80;99.60;;;;;;5116365;28;20420;-84
2022/01/06 12:09:21;;;;;;;5.57;0.90;;;10.00;97.40;;;;;;5116615;28;20421;-88
2022/01/06 12:11:59;;;;;;;5.07;1.07;;;10.10;97.50;;;;;;5116585;28;20998;-86
2022/01/06 12:14:26;;;;;;;3.40;0.93;;;9.70;98.50;;;;;;5116953;28;20441;-84
2022/01/06 12:16:51;;;;;;;7.13;1.23;;;9.80;98.50;;;;;;5116812;28;20421;-88
2022/01/06 12:19:18;;;;;;;4.27;0.80;;;10.30;96.10;;;;;;5098201;28;20561;-87
2022/01/06 12:21:45;;;;;;;3.60;1.17;;;11.30;94.40;;;;;;5128193;28;20237;-83
2022/01/06 12:24:12;;;;;;;4.50;0.97;;;11.70;92.80;;;;;;5121796;28;20423;-83
2022/01/06 12:26:39;;;;;;;5.43;1.07;;;11.80;91.70;;;;;;5122365;28;20426;-84
2022/01/06 12:29:14;;;;;;;2.80;0.70;;;11.60;92.10;;;;;;5120206;28;20435;-83
2022/01/06 12:31:42;;;;;;;5.23;0.77;;;11.40;92.20;;;;;;5100772;28;20421;-85
2022/01/06 12:34:10;;;;;;;4.50;0.80;;;11.10;93.00;;;;;;5116034;28;20893;-85
2022/01/06 12:36:40;;;;;;;4.60;0.60;;;11.10;93.10;;;;;;5115310;28;20416;-84
2022/01/06 12:39:17;;;;;;;2.10;0.70;;;10.90;92.90;;;;;;5115530;28;20473;-88
2022/01/06 12:41:51;;;;;;;1.33;0.20;;;11.50;92.50;;;;;;5115501;28;20469;-83
2022/01/06 12:44:23;;;;;;;3.87;0.80;;;10.60;92.10;;;;;;5115242;28;20467;-84
2022/01/06 12:46:50;;;;;;;5.20;0.77;;;8.50;98.40;;;;;;5115378;28;20454;-84
2022/01/06 12:49:15;;;;;;;2.10;0.37;;;7.70;99.90;;;;;;5096993;28;20523;-83
2022/01/06 12:51:46;;;;;;;1.87;0.37;;;7.40;99.90;;;;;;5115078;28;20406;-88
2022/01/06 12:54:18;;;;;;;4.30;0.80;;;7.30;99.90;;;;;;5115275;28;20244;-85
2022/01/06 12:56:49;;;;;;;5.00;0.53;;;7.10;99.90;;;;;;5115258;28;20442;-87
2022/01/06 12:59:17;;;;;;;3.60;0.57;;;6.80;99.90;;;;;;5115171;28;20469;-83
2022/01/06 13:01:45;;;;;;;1.57;0.40;;;6.70;99.90;;;;;;5115341;28;20459;-91